createdAt,value
2023-05-05T00:00:29.459Z,29.13
2023-05-05T00:00:59.457Z,29.13
2023-05-05T00:01:29.570Z,29.10
2023-05-05T00:01:59.588Z,29.11
2023-05-05T00:02:59.830Z,29.17
2023-05-05T00:03:29.725Z,29.11
2023-05-05T00:03:59.753Z,29.09
2023-05-05T00:04:29.735Z,29.10
2023-05-05T00:04:59.853Z,29.16
2023-05-05T00:05:29.951Z,29.11
2023-05-05T00:06:00.041Z,29.10
2023-05-05T00:06:30.107Z,29.13
2023-05-05T00:07:00.190Z,29.15
2023-05-05T00:07:30.301Z,29.13
2023-05-05T00:08:00.378Z,29.16
2023-05-05T00:08:30.452Z,29.17
2023-05-05T00:09:00.532Z,29.17
2023-05-05T00:09:30.617Z,29.16
2023-05-05T00:10:00.692Z,29.16
2023-05-05T00:10:30.782Z,29.14
2023-05-05T00:11:00.871Z,29.14
2023-05-05T00:11:30.949Z,29.14
2023-05-05T00:12:01.032Z,29.14
2023-05-05T00:12:31.149Z,29.16
2023-05-05T00:13:01.221Z,29.14
2023-05-05T00:13:31.289Z,29.16
2023-05-05T00:14:01.375Z,29.20
2023-05-05T00:14:31.465Z,29.12
2023-05-05T00:15:01.540Z,29.11
2023-05-05T00:15:31.667Z,29.17
2023-05-05T00:16:01.684Z,29.12
2023-05-05T00:17:01.792Z,29.14
2023-05-05T00:17:31.771Z,29.16
2023-05-05T00:18:02.038Z,29.16
2023-05-05T00:18:31.932Z,29.16
2023-05-05T00:19:02.047Z,29.17
2023-05-05T00:19:32.039Z,29.14
2023-05-05T00:20:32.136Z,29.13
2023-05-05T00:21:02.117Z,29.14
2023-05-05T00:21:32.231Z,29.17
2023-05-05T00:22:02.348Z,29.14
2023-05-05T00:22:32.473Z,29.22
2023-05-05T00:23:02.599Z,29.19
2023-05-05T00:23:32.582Z,29.11
2023-05-05T00:24:32.700Z,29.20
2023-05-05T00:25:02.699Z,29.18
2023-05-05T00:25:32.704Z,29.16
2023-05-05T00:26:32.771Z,29.17
2023-05-05T00:27:02.773Z,29.17
2023-05-05T00:27:32.893Z,29.17
2023-05-05T00:28:03.001Z,29.18
2023-05-05T00:28:33.020Z,29.20
2023-05-05T00:29:33.079Z,29.16
2023-05-05T00:30:03.069Z,29.17
2023-05-05T00:30:33.089Z,29.16
2023-05-05T00:31:03.174Z,29.26
2023-05-05T00:31:33.145Z,29.20
2023-05-05T00:32:03.138Z,29.11
2023-05-05T00:32:33.236Z,29.17
2023-05-05T00:33:03.402Z,29.17
2023-05-05T00:33:33.405Z,29.11
2023-05-05T00:34:03.522Z,29.17
2023-05-05T00:34:33.634Z,29.15
2023-05-05T00:35:03.755Z,29.14
2023-05-05T00:35:33.768Z,29.15
2023-05-05T00:36:03.761Z,29.15
2023-05-05T00:36:33.869Z,29.12
2023-05-05T00:37:03.875Z,29.14
2023-05-05T00:38:03.950Z,29.14
2023-05-05T00:38:33.950Z,29.17
2023-05-05T00:39:04.064Z,29.15
2023-05-05T00:39:34.180Z,29.14
2023-05-05T00:40:04.313Z,29.17
2023-05-05T00:40:34.304Z,29.17
2023-05-05T00:41:04.299Z,29.11
2023-05-05T00:41:34.424Z,29.17
2023-05-05T00:42:04.541Z,29.14
2023-05-05T00:42:34.532Z,29.14
2023-05-05T00:43:04.654Z,29.15
2023-05-05T00:43:34.766Z,29.15
2023-05-05T00:44:04.766Z,29.14
2023-05-05T00:45:04.853Z,29.18
2023-05-05T00:45:34.852Z,29.17
2023-05-05T00:46:34.947Z,29.17
2023-05-05T00:47:04.963Z,29.14
2023-05-05T00:47:34.962Z,29.17
2023-05-05T00:48:35.036Z,29.18
2023-05-05T00:49:05.047Z,29.20
2023-05-05T00:49:35.060Z,29.17
2023-05-05T00:50:05.128Z,29.14
2023-05-05T00:50:35.077Z,29.15
2023-05-05T00:51:05.066Z,29.11
2023-05-05T00:51:35.183Z,29.15
2023-05-05T00:52:05.176Z,29.15
2023-05-05T00:53:05.261Z,29.17
2023-05-05T00:53:35.370Z,29.15
2023-05-05T00:54:05.487Z,29.11
2023-05-05T00:54:35.483Z,29.15
2023-05-05T00:55:05.602Z,29.15
2023-05-05T00:55:35.733Z,29.17
2023-05-05T00:56:05.712Z,29.17
2023-05-05T00:56:35.828Z,29.15
2023-05-05T00:57:05.943Z,29.15
2023-05-05T00:57:35.940Z,29.12
2023-05-05T00:58:36.022Z,29.15
2023-05-05T00:59:06.017Z,29.15
2023-05-05T01:00:06.408Z,29.18
2023-05-05T01:00:36.242Z,29.12
2023-05-05T01:01:06.243Z,29.15
2023-05-05T01:01:36.406Z,29.15
2023-05-05T01:02:06.424Z,29.15
2023-05-05T01:02:36.596Z,29.12
2023-05-05T01:03:06.721Z,29.15
2023-05-05T01:03:36.726Z,29.15
2023-05-05T01:04:06.869Z,29.14
2023-05-05T01:04:36.747Z,29.15
2023-05-05T01:05:06.765Z,29.18
2023-05-05T01:05:36.841Z,29.11
2023-05-05T01:06:06.913Z,29.14
2023-05-05T01:06:37.013Z,29.10
2023-05-05T01:07:07.106Z,29.14
2023-05-05T01:07:37.169Z,29.06
2023-05-05T01:08:07.276Z,29.14
2023-05-05T01:08:37.334Z,29.14
2023-05-05T01:09:07.427Z,29.14
2023-05-05T01:09:37.486Z,29.12
2023-05-05T01:10:19.062Z,29.14
2023-05-05T01:10:37.682Z,29.09
2023-05-05T01:11:07.794Z,29.14
2023-05-05T01:11:37.869Z,29.12
2023-05-05T01:12:07.956Z,29.09
2023-05-05T01:12:38.105Z,29.12
2023-05-05T01:13:08.132Z,29.14
2023-05-05T01:13:38.134Z,29.15
2023-05-05T01:14:08.209Z,29.12
2023-05-05T01:14:38.293Z,29.15
2023-05-05T01:15:08.372Z,29.09
2023-05-05T01:15:38.493Z,29.14
2023-05-05T01:16:08.557Z,29.14
2023-05-05T01:16:38.621Z,29.12
2023-05-05T01:17:08.588Z,29.20
2023-05-05T01:17:38.605Z,29.12
2023-05-05T01:18:08.622Z,29.12
2023-05-05T01:18:38.716Z,29.10
2023-05-05T01:19:08.722Z,29.20
2023-05-05T01:20:08.991Z,29.18
2023-05-05T01:20:38.867Z,29.15
2023-05-05T01:21:08.859Z,29.09
2023-05-05T01:21:38.975Z,29.12
2023-05-05T01:22:09.089Z,29.12
2023-05-05T01:22:39.214Z,29.12
2023-05-05T01:23:09.203Z,29.11
2023-05-05T01:24:09.373Z,29.14
2023-05-05T01:24:39.393Z,29.13
2023-05-05T01:25:09.370Z,29.10
2023-05-05T01:25:39.495Z,29.17
2023-05-05T01:26:09.489Z,29.14
2023-05-05T01:27:09.572Z,29.15
2023-05-05T01:27:39.564Z,29.13
2023-05-05T01:28:39.636Z,29.04
2023-05-05T01:29:09.627Z,29.12
2023-05-05T01:30:09.886Z,29.13
2023-05-05T01:30:39.809Z,29.10
2023-05-05T01:31:09.837Z,29.07
2023-05-05T01:31:39.873Z,29.12
2023-05-05T01:32:09.845Z,29.09
2023-05-05T01:32:39.859Z,29.09
2023-05-05T01:33:39.947Z,29.10
2023-05-05T01:34:09.915Z,29.12
2023-05-05T01:35:10.004Z,29.10
2023-05-05T01:35:40.101Z,29.12
2023-05-05T01:36:10.096Z,29.12
2023-05-05T01:36:40.216Z,29.09
2023-05-05T01:37:10.331Z,29.13
2023-05-05T01:37:40.453Z,29.16
2023-05-05T01:38:10.446Z,29.10
2023-05-05T01:38:40.580Z,29.15
2023-05-05T01:39:10.568Z,29.13
2023-05-05T01:39:40.685Z,29.13
2023-05-05T01:40:10.807Z,29.18
2023-05-05T01:40:40.930Z,29.13
2023-05-05T01:41:10.929Z,29.05
2023-05-05T01:42:10.987Z,29.12
2023-05-05T01:42:41.113Z,29.13
2023-05-05T01:43:11.114Z,29.10
2023-05-05T01:43:41.228Z,29.10
2023-05-05T01:44:11.333Z,29.07
2023-05-05T01:44:41.329Z,29.12
2023-05-05T01:45:41.497Z,29.04
2023-05-05T01:46:11.568Z,29.13
2023-05-05T01:46:41.593Z,29.10
2023-05-05T01:47:11.710Z,29.13
2023-05-05T01:47:41.859Z,29.13
2023-05-05T01:48:11.837Z,29.13
2023-05-05T01:48:42.393Z,29.08
2023-05-05T01:49:12.097Z,29.12
2023-05-05T01:49:42.071Z,29.09
2023-05-05T01:50:12.199Z,29.07
2023-05-05T01:50:42.311Z,29.10
2023-05-05T01:51:12.303Z,29.10
2023-05-05T01:52:12.374Z,29.11
2023-05-05T01:52:42.502Z,29.11
2023-05-05T01:53:12.608Z,29.09
2023-05-05T01:53:42.602Z,29.10
2023-05-05T01:54:12.743Z,29.10
2023-05-05T01:54:42.721Z,29.10
2023-05-05T01:55:42.806Z,29.10
2023-05-05T01:56:12.911Z,29.10
2023-05-05T01:56:43.028Z,29.08
2023-05-05T01:57:13.145Z,29.10
2023-05-05T01:57:43.150Z,29.08
2023-05-05T01:58:13.256Z,29.05
2023-05-05T01:58:43.250Z,29.06
2023-05-05T01:59:13.375Z,29.02
2023-05-05T01:59:43.498Z,29.06
2023-05-05T02:00:13.607Z,29.07
2023-05-05T02:00:43.744Z,29.08
2023-05-05T02:01:13.769Z,29.05
2023-05-05T02:01:43.809Z,29.11
2023-05-05T02:02:13.783Z,29.10
2023-05-05T02:02:43.800Z,29.08
2023-05-05T02:03:13.853Z,29.07
2023-05-05T02:03:43.803Z,29.05
2023-05-05T02:04:13.798Z,29.04
2023-05-05T02:04:43.864Z,29.08
2023-05-05T02:05:13.944Z,29.05
2023-05-05T02:05:44.024Z,29.06
2023-05-05T02:06:14.106Z,29.06
2023-05-05T02:06:44.183Z,29.10
2023-05-05T02:07:14.258Z,29.08
2023-05-05T02:07:44.337Z,29.07
2023-05-05T02:08:14.415Z,29.07
2023-05-05T02:08:44.497Z,29.06
2023-05-05T02:09:14.585Z,29.08
2023-05-05T02:09:44.661Z,29.02
2023-05-05T02:10:14.733Z,29.06
2023-05-05T02:10:44.827Z,29.10
2023-05-05T02:11:14.923Z,29.06
2023-05-05T02:11:44.989Z,29.08
2023-05-05T02:12:15.072Z,29.01
2023-05-05T02:12:45.187Z,29.07
2023-05-05T02:13:15.399Z,29.08
2023-05-05T02:13:45.320Z,29.05
2023-05-05T02:14:15.413Z,29.07
2023-05-05T02:14:45.493Z,29.02
2023-05-05T02:15:15.593Z,29.11
2023-05-05T02:15:45.764Z,29.09
2023-05-05T02:16:15.852Z,29.02
2023-05-05T02:16:45.876Z,29.06
2023-05-05T02:17:15.995Z,29.05
2023-05-05T02:17:46.159Z,29.11
2023-05-05T02:18:16.133Z,29.06
2023-05-05T02:18:46.263Z,29.02
2023-05-05T02:19:16.369Z,29.02
2023-05-05T02:19:46.514Z,29.05
2023-05-05T02:20:16.497Z,29.08
2023-05-05T02:20:46.610Z,29.08
2023-05-05T02:21:16.600Z,29.05
2023-05-05T02:21:46.718Z,29.03
2023-05-05T02:22:16.754Z,29.11
2023-05-05T02:22:46.760Z,29.03
2023-05-05T02:23:16.876Z,29.06
2023-05-05T02:23:46.881Z,29.08
2023-05-05T02:24:46.953Z,29.08
2023-05-05T02:25:16.946Z,29.05
2023-05-05T02:25:47.033Z,29.13
2023-05-05T02:26:17.037Z,29.11
2023-05-05T02:26:47.134Z,29.08
2023-05-05T02:27:17.134Z,29.10
2023-05-05T02:28:17.215Z,29.08
2023-05-05T02:28:47.220Z,29.02
2023-05-05T02:29:47.290Z,29.11
2023-05-05T02:30:17.293Z,29.06
2023-05-05T02:31:17.373Z,29.10
2023-05-05T02:31:47.543Z,29.13
2023-05-05T02:32:17.576Z,29.11
2023-05-05T02:32:47.713Z,29.09
2023-05-05T02:33:17.723Z,29.12
2023-05-05T02:33:47.842Z,29.06
2023-05-05T02:34:17.849Z,29.06
2023-05-05T02:34:47.965Z,29.08
2023-05-05T02:35:18.104Z,29.03
2023-05-05T02:35:48.203Z,29.09
2023-05-05T02:36:18.193Z,29.08
2023-05-05T02:36:48.312Z,29.09
2023-05-05T02:37:18.428Z,29.06
2023-05-05T02:37:48.458Z,29.09
2023-05-05T02:38:18.573Z,29.06
2023-05-05T02:38:48.569Z,29.06
2023-05-05T02:39:48.635Z,29.09
2023-05-05T02:40:18.774Z,29.06
2023-05-05T02:40:48.874Z,29.14
2023-05-05T02:41:18.869Z,29.11
2023-05-05T02:42:18.941Z,29.11
2023-05-05T02:42:49.076Z,29.14
2023-05-05T02:43:19.098Z,29.12
2023-05-05T02:43:49.076Z,29.11
2023-05-05T02:44:19.071Z,29.03
2023-05-05T02:45:19.158Z,29.11
2023-05-05T02:45:49.277Z,29.06
2023-05-05T02:46:19.339Z,29.12
2023-05-05T02:46:49.420Z,29.12
2023-05-05T02:47:19.414Z,29.09
2023-05-05T02:47:49.581Z,29.14
2023-05-05T02:48:19.628Z,29.06
2023-05-05T02:48:49.733Z,29.09
2023-05-05T02:49:19.726Z,29.12
2023-05-05T02:49:49.843Z,29.08
2023-05-05T02:50:19.860Z,29.12
2023-05-05T02:50:49.959Z,29.12
2023-05-05T02:51:20.072Z,29.05
2023-05-05T02:51:50.072Z,29.12
2023-05-05T02:52:20.099Z,29.11
2023-05-05T02:52:50.220Z,29.09
2023-05-05T02:53:20.341Z,29.12
2023-05-05T02:53:50.334Z,29.09
2023-05-05T02:54:20.334Z,29.06
2023-05-05T02:54:50.449Z,29.09
2023-05-05T02:55:20.559Z,29.09
2023-05-05T02:55:50.690Z,29.11
2023-05-05T02:56:20.684Z,29.14
2023-05-05T02:56:50.809Z,29.06
2023-05-05T02:57:20.808Z,29.12
2023-05-05T02:57:50.911Z,29.06
2023-05-05T02:58:20.903Z,29.12
2023-05-05T02:58:51.016Z,29.11
2023-05-05T02:59:21.036Z,29.05
2023-05-05T02:59:51.137Z,29.09
2023-05-05T03:00:21.250Z,29.07
2023-05-05T03:00:51.370Z,29.10
2023-05-05T03:01:21.424Z,29.11
2023-05-05T03:01:51.532Z,29.12
2023-05-05T03:02:21.433Z,29.07
2023-05-05T03:02:51.526Z,29.09
2023-05-05T03:03:21.461Z,29.12
2023-05-05T03:03:51.631Z,29.06
2023-05-05T03:04:21.561Z,29.12
2023-05-05T03:04:51.679Z,29.06
2023-05-05T03:05:21.794Z,29.11
2023-05-05T03:05:51.852Z,29.10
2023-05-05T03:06:21.940Z,29.14
2023-05-05T03:06:52.013Z,29.10
2023-05-05T03:07:22.088Z,29.11
2023-05-05T03:07:52.166Z,29.09
2023-05-05T03:08:22.248Z,29.08
2023-05-05T03:08:52.334Z,29.09
2023-05-05T03:09:22.406Z,29.07
2023-05-05T03:09:52.482Z,29.14
2023-05-05T03:10:22.565Z,29.06
2023-05-05T03:10:52.648Z,29.14
2023-05-05T03:11:22.723Z,29.09
2023-05-05T03:11:52.805Z,29.06
2023-05-05T03:12:22.891Z,29.10
2023-05-05T03:12:52.998Z,29.12
2023-05-05T03:13:23.063Z,29.10
2023-05-05T03:13:53.141Z,29.13
2023-05-05T03:14:23.214Z,29.15
2023-05-05T03:14:53.302Z,29.12
2023-05-05T03:15:23.401Z,29.09
2023-05-05T03:15:53.442Z,29.09
2023-05-05T03:16:23.499Z,29.16
2023-05-05T03:16:53.511Z,29.13
2023-05-05T03:17:23.523Z,29.10
2023-05-05T03:17:53.565Z,29.12
2023-05-05T03:18:23.544Z,29.10
2023-05-05T03:18:53.671Z,29.09
2023-05-05T03:19:23.670Z,29.16
2023-05-05T03:19:53.782Z,29.16
2023-05-05T03:20:23.930Z,29.13
2023-05-05T03:20:53.912Z,29.15
2023-05-05T03:21:53.986Z,29.10
2023-05-05T03:22:24.107Z,29.16
2023-05-05T03:22:54.223Z,29.12
2023-05-05T03:23:24.225Z,29.13
2023-05-05T03:23:54.333Z,29.12
2023-05-05T03:24:24.455Z,29.12
2023-05-05T03:24:54.569Z,29.13
2023-05-05T03:25:24.739Z,29.13
2023-05-05T03:25:54.721Z,29.13
2023-05-05T03:26:54.789Z,29.12
2023-05-05T03:27:24.910Z,29.10
2023-05-05T03:27:54.896Z,29.13
2023-05-05T03:28:25.015Z,29.15
2023-05-05T03:28:55.135Z,29.08
2023-05-05T03:29:25.251Z,29.05
2023-05-05T03:29:55.252Z,29.10
2023-05-05T03:30:25.257Z,29.05
2023-05-05T03:31:25.366Z,29.18
2023-05-05T03:31:55.403Z,29.17
2023-05-05T03:32:25.390Z,29.17
2023-05-05T03:32:55.485Z,29.13
2023-05-05T03:33:25.488Z,29.15
2023-05-05T03:33:55.607Z,29.13
2023-05-05T03:34:25.727Z,29.15
2023-05-05T03:34:55.717Z,29.19
2023-05-05T03:35:25.760Z,29.21
2023-05-05T03:35:55.730Z,29.15
2023-05-05T03:36:55.808Z,29.17
2023-05-05T03:37:25.932Z,29.19
2023-05-05T03:37:56.044Z,29.15
2023-05-05T03:38:26.160Z,29.18
2023-05-05T03:38:56.157Z,29.18
2023-05-05T03:39:26.265Z,29.15
2023-05-05T03:39:56.272Z,29.16
2023-05-05T03:40:36.313Z,29.21
2023-05-05T03:40:56.428Z,29.17
2023-05-05T03:41:26.558Z,29.25
2023-05-05T03:41:56.537Z,29.27
2023-05-05T03:42:26.656Z,29.21
2023-05-05T03:42:56.770Z,29.21
2023-05-05T03:43:26.771Z,29.21
2023-05-05T03:43:56.880Z,29.20
2023-05-05T03:44:26.999Z,29.21
2023-05-05T03:44:57.138Z,29.25
2023-05-05T03:45:27.305Z,29.26
2023-05-05T03:45:57.271Z,29.27
2023-05-05T03:46:27.296Z,29.28
2023-05-05T03:46:57.270Z,29.30
2023-05-05T03:47:27.432Z,29.23
2023-05-05T03:47:57.450Z,29.30
2023-05-05T03:48:27.545Z,29.29
2023-05-05T03:48:57.658Z,29.35
2023-05-05T03:49:27.664Z,29.31
2023-05-05T03:49:57.777Z,29.37
2023-05-05T03:50:27.938Z,29.31
2023-05-05T03:50:57.907Z,29.31
2023-05-05T03:51:58.044Z,29.32
2023-05-05T03:52:28.021Z,29.34
2023-05-05T03:53:28.099Z,29.29
2023-05-05T03:53:58.220Z,29.28
2023-05-05T03:54:28.332Z,29.28
2023-05-05T03:54:58.331Z,29.25
2023-05-05T03:55:28.459Z,29.25
2023-05-05T03:55:58.454Z,29.30
2023-05-05T03:56:58.526Z,29.26
2023-05-05T03:57:28.639Z,29.30
2023-05-05T03:57:58.638Z,29.26
2023-05-05T03:58:28.756Z,29.26
2023-05-05T03:58:58.759Z,29.20
2023-05-05T03:59:28.869Z,29.20
2023-05-05T03:59:58.870Z,29.26
2023-05-05T04:00:29.022Z,29.28
2023-05-05T04:00:59.032Z,29.25
2023-05-05T04:01:29.010Z,29.30
2023-05-05T04:01:59.142Z,29.23
2023-05-05T04:02:29.181Z,29.25
2023-05-05T04:02:59.230Z,29.26
2023-05-05T04:03:29.314Z,29.22
2023-05-05T04:03:59.362Z,29.24
2023-05-05T04:04:29.438Z,29.19
2023-05-05T04:04:59.438Z,29.23
2023-05-05T04:05:29.556Z,29.19
2023-05-05T04:05:59.653Z,29.19
2023-05-05T04:06:29.699Z,29.17
2023-05-05T04:06:59.788Z,29.21
2023-05-05T04:07:29.894Z,29.21
2023-05-05T04:07:59.968Z,29.21
2023-05-05T04:08:30.047Z,29.25
2023-05-05T04:09:00.169Z,29.24
2023-05-05T04:09:30.241Z,29.28
2023-05-05T04:10:00.359Z,29.23
2023-05-05T04:10:30.469Z,29.21
2023-05-05T04:11:00.555Z,29.22
2023-05-05T04:11:30.631Z,29.21
2023-05-05T04:12:00.719Z,29.28
2023-05-05T04:12:30.822Z,29.25
2023-05-05T04:13:00.987Z,29.25
2023-05-05T04:13:30.915Z,29.25
2023-05-05T04:14:00.995Z,29.30
2023-05-05T04:14:31.075Z,29.28
2023-05-05T04:15:01.164Z,29.31
2023-05-05T04:15:31.292Z,29.34
2023-05-05T04:16:01.367Z,29.31
2023-05-05T04:16:31.405Z,29.32
2023-05-05T04:17:01.399Z,29.28
2023-05-05T04:17:31.424Z,29.37
2023-05-05T04:18:01.435Z,29.28
2023-05-05T04:18:31.444Z,29.28
2023-05-05T04:19:01.550Z,29.26
2023-05-05T04:19:31.545Z,29.25
2023-05-05T04:20:01.747Z,29.25
2023-05-05T04:20:31.751Z,29.28
2023-05-05T04:21:01.747Z,29.25
2023-05-05T04:21:31.771Z,29.17
2023-05-05T04:22:31.847Z,29.26
2023-05-05T04:23:01.836Z,29.25
2023-05-05T04:23:31.959Z,29.28
2023-05-05T04:24:01.949Z,29.25
2023-05-05T04:24:32.070Z,29.23
2023-05-05T04:25:02.188Z,29.22
2023-05-05T04:25:32.330Z,29.25
2023-05-05T04:26:02.329Z,29.22
2023-05-05T04:27:02.391Z,29.17
2023-05-05T04:27:32.613Z,29.25
2023-05-05T04:28:02.614Z,29.25
2023-05-05T04:28:32.737Z,29.30
2023-05-05T04:29:02.856Z,29.22
2023-05-05T04:29:32.846Z,29.20
2023-05-05T04:30:02.977Z,29.22
2023-05-05T04:30:33.106Z,29.19
2023-05-05T04:31:03.140Z,29.25
2023-05-05T04:31:33.152Z,29.25
2023-05-05T04:32:03.151Z,29.30
2023-05-05T04:32:33.310Z,29.21
2023-05-05T04:33:03.365Z,29.23
2023-05-05T04:33:33.363Z,29.17
2023-05-05T04:34:03.360Z,29.19
2023-05-05T04:34:33.540Z,29.21
2023-05-05T04:35:03.546Z,29.19
2023-05-05T04:35:33.546Z,29.21
2023-05-05T04:36:03.574Z,29.25
2023-05-05T04:36:33.557Z,29.27
2023-05-05T04:37:03.581Z,29.22
2023-05-05T04:37:33.667Z,29.22
2023-05-05T04:38:03.786Z,29.23
2023-05-05T04:38:33.918Z,29.28
2023-05-05T04:39:03.922Z,29.26
2023-05-05T04:39:33.917Z,29.28
2023-05-05T04:40:33.998Z,29.23
2023-05-05T04:41:03.996Z,29.31
2023-05-05T04:41:34.107Z,29.17
2023-05-05T04:42:04.117Z,29.19
2023-05-05T04:42:34.101Z,29.22
2023-05-05T04:43:04.220Z,29.20
2023-05-05T04:43:34.222Z,29.23
2023-05-05T04:44:04.350Z,29.22
2023-05-05T04:44:34.333Z,29.21
2023-05-05T04:45:04.461Z,29.17
2023-05-05T04:45:34.592Z,29.19
2023-05-05T04:46:04.639Z,29.23
2023-05-05T04:46:34.748Z,29.19
2023-05-05T04:47:04.653Z,29.22
2023-05-05T04:47:34.773Z,29.11
2023-05-05T04:48:04.817Z,29.16
2023-05-05T04:48:34.792Z,29.17
2023-05-05T04:49:04.788Z,29.15
2023-05-05T04:50:04.893Z,29.16
2023-05-05T04:50:34.942Z,29.17
2023-05-05T04:51:04.934Z,29.13
2023-05-05T04:52:05.015Z,29.12
2023-05-05T04:52:35.152Z,29.10
2023-05-05T04:53:05.248Z,29.09
2023-05-05T04:53:35.240Z,29.15
2023-05-05T04:54:05.282Z,29.09
2023-05-05T04:54:35.285Z,29.12
2023-05-05T04:55:05.292Z,29.09
2023-05-05T04:55:35.284Z,29.12
2023-05-05T04:56:35.360Z,29.13
2023-05-05T04:57:05.479Z,29.05
2023-05-05T04:57:35.603Z,29.04
2023-05-05T04:58:05.714Z,29.05
2023-05-05T04:58:35.715Z,29.06
2023-05-05T04:59:35.795Z,29.17
2023-05-05T05:00:05.891Z,29.15
2023-05-05T05:00:35.936Z,29.15
2023-05-05T05:01:05.919Z,29.09
2023-05-05T05:02:06.042Z,29.12
2023-05-05T05:02:36.128Z,29.08
2023-05-05T05:03:06.230Z,29.12
2023-05-05T05:03:36.285Z,29.07
2023-05-05T05:04:06.319Z,29.16
2023-05-05T05:04:36.250Z,29.12
2023-05-05T05:05:06.361Z,29.12
2023-05-05T05:05:36.473Z,29.19
2023-05-05T05:06:06.553Z,29.17
2023-05-05T05:06:36.631Z,29.15
2023-05-05T05:07:06.728Z,29.16
2023-05-05T05:07:36.810Z,29.17
2023-05-05T05:08:06.871Z,29.17
2023-05-05T05:08:36.948Z,29.19
2023-05-05T05:09:07.050Z,29.17
2023-05-05T05:09:37.104Z,29.28
2023-05-05T05:10:07.581Z,29.22
2023-05-05T05:10:37.261Z,29.25
2023-05-05T05:11:07.245Z,29.23
2023-05-05T05:11:37.306Z,29.22
2023-05-05T05:12:07.381Z,29.32
2023-05-05T05:12:37.472Z,29.32
2023-05-05T05:13:07.585Z,29.31
2023-05-05T05:13:37.572Z,29.30
2023-05-05T05:14:07.653Z,29.23
2023-05-05T05:14:37.735Z,29.27
2023-05-05T05:15:07.816Z,29.39
2023-05-05T05:15:37.872Z,29.40
2023-05-05T05:16:07.978Z,29.36
2023-05-05T05:17:07.955Z,29.40
2023-05-05T05:17:37.972Z,29.39
2023-05-05T05:18:08.014Z,29.42
2023-05-05T05:18:38.007Z,29.44
2023-05-05T05:19:08.013Z,29.36
2023-05-05T05:19:38.004Z,29.37
2023-05-05T05:20:38.124Z,29.31
2023-05-05T05:21:08.127Z,29.36
2023-05-05T05:21:38.107Z,29.30
2023-05-05T05:22:08.117Z,29.28
2023-05-05T05:22:38.121Z,29.32
2023-05-05T05:23:08.143Z,29.32
2023-05-05T05:23:38.128Z,29.35
2023-05-05T05:24:08.145Z,29.31
2023-05-05T05:24:38.285Z,29.28
2023-05-05T05:25:08.293Z,29.35
2023-05-05T05:25:38.322Z,29.34
2023-05-05T05:26:08.319Z,29.35
2023-05-05T05:26:38.428Z,29.38
2023-05-05T05:27:10.007Z,29.37
2023-05-05T05:27:38.560Z,29.37
2023-05-05T05:28:10.756Z,29.35
2023-05-05T05:28:38.678Z,29.43
2023-05-05T05:29:08.719Z,29.40
2023-05-05T05:29:38.751Z,29.47
2023-05-05T05:30:09.005Z,29.46
2023-05-05T05:30:38.781Z,29.53
2023-05-05T05:31:08.792Z,29.50
2023-05-05T05:31:38.813Z,29.56
2023-05-05T05:32:09.061Z,29.48
2023-05-05T05:32:38.963Z,29.53
2023-05-05T05:33:09.071Z,29.47
2023-05-05T05:33:39.081Z,29.58
2023-05-05T05:34:10.307Z,29.52
2023-05-05T05:34:39.161Z,29.53
2023-05-05T05:35:09.289Z,29.56
2023-05-05T05:35:39.305Z,29.55
2023-05-05T05:36:09.315Z,29.58
2023-05-05T05:37:09.396Z,29.55
2023-05-05T05:37:39.387Z,29.58
2023-05-05T05:38:09.525Z,29.67
2023-05-05T05:38:39.524Z,29.64
2023-05-05T05:39:41.924Z,29.65
2023-05-05T05:40:09.770Z,29.70
2023-05-05T05:40:39.674Z,29.70
2023-05-05T05:41:09.667Z,29.73
2023-05-05T05:42:09.665Z,29.75
2023-05-05T05:42:39.668Z,29.75
2023-05-05T05:43:09.670Z,29.77
2023-05-05T05:44:09.741Z,29.76
2023-05-05T05:44:39.736Z,29.70
2023-05-05T05:45:09.755Z,29.73
2023-05-05T05:45:39.792Z,29.64
2023-05-05T05:46:09.820Z,29.67
2023-05-05T05:46:39.898Z,29.69
2023-05-05T05:47:09.843Z,29.66
2023-05-05T05:47:39.878Z,29.66
2023-05-05T05:48:09.909Z,29.62
2023-05-05T05:48:39.935Z,29.66
2023-05-05T05:49:10.087Z,29.60
2023-05-05T05:49:40.061Z,29.64
2023-05-05T05:50:10.346Z,29.66
2023-05-05T05:50:40.179Z,29.67
2023-05-05T05:51:10.173Z,29.66
2023-05-05T05:51:40.297Z,29.69
2023-05-05T05:52:10.293Z,29.67
2023-05-05T05:53:10.372Z,29.66
2023-05-05T05:53:40.489Z,29.66
2023-05-05T05:54:10.623Z,29.64
2023-05-05T05:54:40.601Z,29.63
2023-05-05T05:55:10.717Z,29.60
2023-05-05T05:55:40.842Z,29.64
2023-05-05T05:56:10.841Z,29.67
2023-05-05T05:57:10.931Z,29.72
2023-05-05T05:57:41.054Z,29.69
2023-05-05T05:58:11.048Z,29.67
2023-05-05T05:59:11.132Z,29.69
2023-05-05T05:59:41.131Z,29.69
2023-05-05T06:00:11.403Z,29.69
2023-05-05T06:00:41.355Z,29.67
2023-05-05T06:01:11.344Z,29.88
2023-05-05T06:01:41.468Z,29.73
2023-05-05T06:02:11.504Z,29.84
2023-05-05T06:02:41.657Z,29.74
2023-05-05T06:03:11.652Z,29.81
2023-05-05T06:03:41.776Z,29.77
2023-05-05T06:04:11.771Z,29.81
2023-05-05T06:04:41.790Z,29.80
2023-05-05T06:05:11.812Z,29.92
2023-05-05T06:05:41.935Z,29.77
2023-05-05T06:06:11.899Z,29.82
2023-05-05T06:06:41.970Z,29.75
2023-05-05T06:07:12.048Z,29.71
2023-05-05T06:07:42.128Z,29.65
2023-05-05T06:08:12.221Z,29.64
2023-05-05T06:08:42.305Z,29.66
2023-05-05T06:09:12.413Z,29.57
2023-05-05T06:09:42.471Z,29.59
2023-05-05T06:10:26.763Z,29.58
2023-05-05T06:10:42.558Z,29.69
2023-05-05T06:11:12.654Z,29.63
2023-05-05T06:11:42.717Z,29.71
2023-05-05T06:12:12.804Z,29.59
2023-05-05T06:12:42.921Z,29.56
2023-05-05T06:13:13.177Z,29.56
2023-05-05T06:13:43.057Z,29.57
2023-05-05T06:14:13.128Z,29.50
2023-05-05T06:14:43.219Z,29.56
2023-05-05T06:15:13.321Z,29.57
2023-05-05T06:15:43.361Z,29.66
2023-05-05T06:16:13.422Z,29.57
2023-05-05T06:16:43.486Z,29.67
2023-05-05T06:17:13.496Z,29.64
2023-05-05T06:18:13.616Z,29.58
2023-05-05T06:18:43.613Z,29.65
2023-05-05T06:19:13.613Z,29.58
2023-05-05T06:20:13.714Z,29.58
2023-05-05T06:20:43.696Z,29.64
2023-05-05T06:21:13.818Z,29.57
2023-05-05T06:21:43.817Z,29.58
2023-05-05T06:22:13.814Z,29.54
2023-05-05T06:23:13.910Z,29.55
2023-05-05T06:23:43.896Z,29.78
2023-05-05T06:24:44.002Z,29.56
2023-05-05T06:25:13.980Z,29.52
2023-05-05T06:26:14.052Z,29.53
2023-05-05T06:26:44.048Z,29.59
2023-05-05T06:27:14.067Z,29.68
2023-05-05T06:27:44.071Z,29.71
2023-05-05T06:28:44.149Z,29.62
2023-05-05T06:29:14.285Z,29.59
2023-05-05T06:29:44.390Z,29.61
2023-05-05T06:30:14.394Z,29.58
2023-05-05T06:31:14.509Z,29.68
2023-05-05T06:31:44.534Z,29.70
2023-05-05T06:32:14.540Z,29.70
2023-05-05T06:32:44.557Z,29.63
2023-05-05T06:33:44.638Z,29.57
2023-05-05T06:34:14.617Z,29.58
2023-05-05T06:34:44.648Z,29.51
2023-05-05T06:35:14.640Z,29.52
2023-05-05T06:36:14.776Z,29.50
2023-05-05T06:36:44.811Z,29.51
2023-05-05T06:37:14.817Z,29.48
2023-05-05T06:37:44.807Z,29.49
2023-05-05T06:38:44.903Z,29.51
2023-05-05T06:39:16.013Z,29.51
2023-05-05T06:39:44.963Z,29.51
2023-05-05T06:40:14.990Z,29.45
2023-05-05T06:41:15.038Z,29.51
2023-05-05T06:41:45.028Z,29.48
2023-05-05T06:42:45.101Z,29.56
2023-05-05T06:43:15.104Z,29.45
2023-05-05T06:44:15.169Z,29.64
2023-05-05T06:44:45.296Z,29.57
2023-05-05T06:45:15.287Z,29.51
2023-05-05T06:45:45.292Z,29.53
2023-05-05T06:46:45.404Z,29.48
2023-05-05T06:47:15.452Z,29.54
2023-05-05T06:47:45.454Z,29.39
2023-05-05T06:48:15.427Z,29.44
2023-05-05T06:49:15.502Z,29.52
2023-05-05T06:49:45.534Z,29.47
2023-05-05T06:50:15.522Z,29.47
2023-05-05T06:51:15.605Z,29.50
2023-05-05T06:51:45.594Z,29.53
2023-05-05T06:52:45.669Z,29.64
2023-05-05T06:53:15.676Z,29.64
2023-05-05T06:53:45.790Z,29.66
2023-05-05T06:54:15.904Z,29.68
2023-05-05T06:54:45.920Z,29.66
2023-05-05T06:55:15.915Z,29.59
2023-05-05T06:55:46.097Z,29.61
2023-05-05T06:56:15.962Z,29.68
2023-05-05T06:57:16.040Z,29.70
2023-05-05T06:57:46.040Z,29.64
2023-05-05T06:58:46.118Z,29.66
2023-05-05T06:59:16.119Z,29.57
2023-05-05T06:59:46.150Z,29.63
2023-05-05T07:00:16.155Z,29.69
2023-05-05T07:00:46.232Z,29.60
2023-05-05T07:01:16.216Z,29.54
2023-05-05T07:01:46.212Z,29.59
2023-05-05T07:02:16.203Z,29.54
2023-05-05T07:03:16.384Z,29.66
2023-05-05T07:03:46.305Z,29.60
2023-05-05T07:04:16.489Z,29.62
2023-05-05T07:04:46.411Z,29.63